Time;durP1;ratioP1;P1;durP2;ratioP2;P2;SDS_P1;SDS_P2;PMS_P1;PMS_P2;Temp;Humidity;BMP_temperature;BMP_pressure;BME280_temperature;BME280_humidity;BME280_pressure;Samples;Min_cycle;Max_cycle;Signal;HPM_P1;HPM_P2
2024/02/16 00:01:36;;;;;;;3.33;2.28;;;;;;;17.24;44.39;98650.78;5072570;28;20028;-49
2024/02/16 00:04:02;;;;;;;4.55;2.58;;;;;;;17.25;44.06;98645.25;5073941;28;20060;-48
2024/02/16 00:06:27;;;;;;;4.47;2.40;;;;;;;17.26;43.98;98638.88;5073897;28;20070;-48
2024/02/16 00:08:53;;;;;;;5.05;2.17;;;;;;;17.28;44.11;98643.94;5073871;28;20525;-48
2024/02/16 00:11:20;;;;;;;5.75;2.30;;;;;;;17.25;43.65;98647.09;5073830;28;20556;-48
2024/02/16 00:13:45;;;;;;;5.72;2.22;;;;;;;17.21;44.21;98643.34;5072583;28;20032;-48
2024/02/16 00:16:11;;;;;;;4.70;2.50;;;;;;;17.19;44.10;98646.22;5072360;28;20037;-48
2024/02/16 00:18:37;;;;;;;6.47;3.35;;;;;;;17.37;44.52;98645.13;5073465;28;20040;-49
2024/02/16 00:21:03;;;;;;;3.53;2.40;;;;;;;17.38;44.21;98646.72;5071992;28;20111;-48
2024/02/16 00:23:28;;;;;;;4.78;1.98;;;;;;;17.53;43.74;98656.75;5073585;28;20025;-49
2024/02/16 00:25:54;;;;;;;6.80;3.08;;;;;;;17.57;43.72;98648.03;5072250;28;20031;-49
2024/02/16 00:28:20;;;;;;;4.47;2.00;;;;;;;17.66;43.62;98640.44;5073541;28;20040;-48
2024/02/16 00:30:46;;;;;;;7.25;2.65;;;;;;;17.65;44.00;98646.81;5073417;28;20025;-48
2024/02/16 00:33:12;;;;;;;6.25;2.28;;;;;;;17.84;43.78;98652.63;5073440;28;20035;-48
2024/02/16 00:35:38;;;;;;;6.63;2.83;;;;;;;17.82;43.40;98648.59;5073367;28;20024;-49
2024/02/16 00:38:04;;;;;;;6.97;2.55;;;;;;;17.83;43.87;98647.53;5073340;28;20471;-49
2024/02/16 00:40:30;;;;;;;7.68;3.00;;;;;;;17.76;44.20;98642.41;5089032;28;20040;-48
2024/02/16 00:42:56;;;;;;;5.97;2.20;;;;;;;17.65;43.95;98652.13;5071965;28;20024;-48
2024/02/16 00:45:22;;;;;;;10.40;2.63;;;;;;;17.64;44.12;98645.19;5073138;28;20035;-49
2024/02/16 00:47:48;;;;;;;6.43;2.33;;;;;;;17.53;44.29;98646.13;5071853;28;20021;-48
2024/02/16 00:50:15;;;;;;;4.75;2.05;;;;;;;17.55;44.35;98659.97;5071818;28;20162;-49
2024/02/16 00:52:41;;;;;;;6.38;2.17;;;;;;;17.36;45.34;98654.13;5071800;28;20020;-48
2024/02/16 00:55:07;;;;;;;5.78;2.50;;;;;;;17.23;45.03;98663.25;5072972;28;20024;-48
2024/02/16 00:57:34;;;;;;;7.97;3.10;;;;;;;17.22;46.41;98656.31;5072959;28;20044;-48
2024/02/16 01:00:00;;;;;;;5.47;2.53;;;;;;;17.24;45.54;98656.88;5072809;28;20079;-48
2024/02/16 01:02:25;;;;;;;5.28;2.30;;;;;;;17.18;45.33;98668.47;5072822;28;20040;-49
2024/02/16 01:04:52;;;;;;;7.60;2.90;;;;;;;17.25;45.90;98666.47;5072854;28;20033;-48
2024/02/16 01:07:18;;;;;;;7.95;3.00;;;;;;;17.23;45.41;98673.88;5072630;28;20078;-48
2024/02/16 01:09:44;;;;;;;6.55;2.55;;;;;;;17.43;45.29;98659.28;5071665;28;20028;-48
2024/02/16 01:12:09;;;;;;;5.95;2.17;;;;;;;17.40;46.13;98671.16;5072673;28;20028;-49
2024/02/16 01:14:35;;;;;;;4.38;2.42;;;;;;;17.46;45.99;98678.13;5071338;28;20028;-49
2024/02/16 01:17:01;;;;;;;5.80;3.22;;;;;;;17.61;47.56;98674.91;5071523;28;20074;-48
2024/02/16 01:19:26;;;;;;;4.90;2.20;;;;;;;17.45;47.73;98689.03;5071098;28;20494;-48
2024/02/16 01:21:57;;;;;;;9.15;5.55;;;;;;;17.31;48.44;98678.75;5071055;28;20067;-49
2024/02/16 01:24:23;;;;;;;8.05;2.50;;;;;;;17.24;47.81;98691.38;5072353;28;20036;-48
2024/02/16 01:26:49;;;;;;;11.13;3.60;;;;;;;17.15;49.86;98684.88;5054758;28;20028;-49
2024/02/16 01:29:14;;;;;;;6.22;2.97;;;;;;;17.13;48.64;98692.28;5072356;28;20024;-48
2024/02/16 01:31:40;;;;;;;5.45;2.30;;;;;;;17.17;48.71;98696.06;5071637;28;20406;-48
2024/02/16 01:34:07;;;;;;;5.28;2.03;;;;;;;17.28;47.47;98699.66;5072284;28;20023;-49
2024/02/16 01:36:32;;;;;;;19.00;17.05;;;;;;;17.27;47.75;98696.19;5072170;28;20055;-49
2024/02/16 01:38:58;;;;;;;10.43;8.70;;;;;;;17.41;47.71;98688.69;5072187;28;20486;-49
2024/02/16 01:41:24;;;;;;;5.80;3.08;;;;;;;17.61;47.27;98698.00;5072062;28;20437;-48
2024/02/16 01:43:53;;;;;;;5.97;2.03;;;;;;;17.47;46.43;98705.50;5072163;28;20028;-48
2024/02/16 01:46:19;;;;;;;7.00;2.30;;;;;;;17.18;47.02;98692.34;5070891;28;20444;-48
2024/02/16 01:48:44;;;;;;;6.25;3.55;;;;;;;17.00;48.25;98697.91;5072070;28;20024;-48
2024/02/16 01:51:11;;;;;;;6.93;2.88;;;;;;;17.03;48.21;98689.47;5072007;28;20021;-48
2024/02/16 01:53:37;;;;;;;9.52;4.85;;;;;;;17.06;48.47;98700.38;5072078;28;20048;-48
2024/02/16 01:56:04;;;;;;;4.80;2.88;;;;;;;17.04;48.25;98689.22;5071925;28;20028;-48
2024/02/16 01:58:30;;;;;;;7.05;2.80;;;;;;;16.99;48.33;98691.81;5071957;28;20016;-48
2024/02/16 02:00:56;;;;;;;5.97;2.47;;;;;;;17.02;48.56;98693.16;5071801;28;20398;-49
2024/02/16 02:03:22;;;;;;;7.68;2.60;;;;;;;17.06;48.81;98686.31;5072104;28;20516;-49
2024/02/16 02:05:49;;;;;;;4.60;2.15;;;;;;;17.14;48.34;98688.56;5071777;28;20027;-48
2024/02/16 02:08:15;;;;;;;10.45;4.68;;;;;;;17.14;48.90;98693.88;5071805;28;20028;-48
2024/02/16 02:10:42;;;;;;;7.80;2.70;;;;;;;17.22;47.91;98688.16;5071842;28;20108;-48
2024/02/16 02:13:08;;;;;;;6.95;2.35;;;;;;;17.25;47.74;98678.94;5070742;28;20028;-48
2024/02/16 02:15:34;;;;;;;7.75;3.80;;;;;;;17.33;48.33;98679.31;5071631;28;20029;-48
2024/02/16 02:18:00;;;;;;;6.97;2.55;;;;;;;17.46;47.57;98685.31;5071999;28;20033;-48
2024/02/16 02:20:26;;;;;;;49.85;45.75;;;;;;;17.51;47.55;98688.03;5070350;28;20572;-48
2024/02/16 02:22:52;;;;;;;9.45;3.83;;;;;;;17.36;49.02;98676.19;5070364;28;20039;-48
2024/02/16 02:25:18;;;;;;;8.40;3.67;;;;;;;16.71;52.80;98676.75;5071863;28;20056;-48
2024/02/16 02:27:45;;;;;;;8.48;3.58;;;;;;;16.32;52.73;98672.13;5071511;28;20056;-48
2024/02/16 02:30:11;;;;;;;6.30;2.55;;;;;;;16.32;52.65;98672.13;5071565;28;20062;-48
2024/02/16 02:32:37;;;;;;;8.77;3.45;;;;;;;16.22;54.44;98665.84;5071585;28;20032;-48
2024/02/16 02:35:04;;;;;;;7.72;2.65;;;;;;;16.30;52.44;98668.13;5070222;28;20036;-48
2024/02/16 02:37:30;;;;;;;6.25;2.15;;;;;;;16.37;51.72;98658.16;5071516;28;20107;-49
2024/02/16 02:39:56;;;;;;;9.57;3.58;;;;;;;16.40;52.06;98662.19;5071444;28;20024;-48
2024/02/16 02:42:22;;;;;;;5.15;4.53;;;;;;;16.38;51.59;98662.44;5071731;28;20041;-48
2024/02/16 02:44:51;;;;;;;8.35;3.20;;;;;;;16.51;50.86;98648.06;5074016;28;20021;-48
2024/02/16 02:47:17;;;;;;;9.38;5.85;;;;;;;16.55;51.31;98644.69;5074132;28;20028;-49
2024/02/16 02:49:43;;;;;;;9.23;5.18;;;;;;;16.50;51.47;98639.34;5075473;28;20444;-48
2024/02/16 02:52:09;;;;;;;10.55;5.55;;;;;;;16.58;52.00;98644.22;5075354;28;20028;-48
2024/02/16 02:54:35;;;;;;;11.23;3.30;;;;;;;16.55;51.48;98642.03;5057431;28;20081;-48
2024/02/16 02:57:04;;;;;;;7.22;2.63;;;;;;;16.48;51.63;98648.53;5075620;28;20037;-48
2024/02/16 02:59:30;;;;;;;8.57;2.55;;;;;;;16.42;51.01;98649.50;5075202;28;20027;-48
2024/02/16 03:01:55;;;;;;;12.85;4.43;;;;;;;16.43;51.54;98649.25;5075105;28;20020;-48
2024/02/16 03:04:21;;;;;;;5.20;2.50;;;;;;;16.38;51.47;98655.28;5075098;28;20031;-48
2024/02/16 03:06:51;;;;;;;9.60;3.75;;;;;;;16.20;52.48;98647.56;5075121;28;20032;-48
2024/02/16 03:09:16;;;;;;;5.60;2.17;;;;;;;16.02;51.55;98648.56;5075007;28;20398;-48
2024/02/16 03:11:42;;;;;;;5.38;2.65;;;;;;;16.01;53.26;98649.56;5073906;28;20070;-48
2024/02/16 03:14:08;;;;;;;5.13;2.60;;;;;;;16.04;51.72;98651.78;5073853;28;20029;-48
2024/02/16 03:16:35;;;;;;;5.78;2.25;;;;;;;16.00;52.13;98649.81;5074893;28;20390;-48
2024/02/16 03:19:00;;;;;;;5.90;2.45;;;;;;;15.97;51.43;98654.53;5056858;28;20055;-48
2024/02/16 03:21:27;;;;;;;5.20;3.08;;;;;;;15.87;51.69;98656.19;5073632;28;20032;-48
2024/02/16 03:23:53;;;;;;;5.88;2.20;;;;;;;15.91;51.82;98652.03;5074737;28;20055;-48
2024/02/16 03:26:20;;;;;;;14.27;3.35;;;;;;;15.81;52.20;98649.19;5073365;28;20017;-48
2024/02/16 03:28:49;;;;;;;7.75;2.97;;;;;;;15.94;51.91;98648.94;5073356;28;20021;-48
2024/02/16 03:31:20;;;;;;;8.70;3.25;;;;;;;16.15;51.73;98661.47;5073523;28;20032;-49
2024/02/16 03:33:46;;;;;;;6.45;2.70;;;;;;;16.26;50.58;98648.44;5073412;28;20028;-49
2024/02/16 03:36:14;;;;;;;7.80;3.33;;;;;;;16.28;50.92;98649.81;5074503;28;20094;-48
2024/02/16 03:38:49;;;;;;;5.38;3.00;;;;;;;16.20;50.37;98646.72;5074526;28;20020;-48
2024/02/16 03:41:20;;;;;;;4.65;2.83;;;;;;;16.00;50.93;98658.56;5073076;28;20028;-48
2024/02/16 03:43:46;;;;;;;7.65;2.45;;;;;;;15.91;51.35;98644.88;5074769;28;20043;-48
2024/02/16 03:46:11;;;;;;;4.97;2.72;;;;;;;15.95;51.27;98653.97;5074326;28;20587;-49
2024/02/16 03:48:38;;;;;;;7.47;3.10;;;;;;;15.82;51.64;98653.47;5074305;28;20027;-48
2024/02/16 03:51:04;;;;;;;10.00;4.10;;;;;;;15.77;52.15;98652.31;5074279;28;20032;-48
2024/02/16 03:53:30;;;;;;;6.32;2.95;;;;;;;15.81;53.23;98654.50;5074256;28;20401;-48
2024/02/16 03:55:56;;;;;;;5.78;3.10;;;;;;;15.75;53.03;98656.22;5072169;28;20123;-48
2024/02/16 03:58:22;;;;;;;5.55;2.33;;;;;;;15.57;52.00;98657.16;5074162;28;20028;-48
2024/02/16 04:00:52;;;;;;;7.68;3.28;;;;;;;15.40;52.72;98661.56;5072969;28;20498;-48
2024/02/16 04:03:18;;;;;;;5.05;2.33;;;;;;;15.44;52.39;98663.50;5073029;28;20119;-48
2024/02/16 04:05:44;;;;;;;6.57;2.42;;;;;;;15.36;52.25;98662.03;5073943;28;20112;-48
2024/02/16 04:08:10;;;;;;;10.00;4.18;;;;;;;15.31;53.35;98661.94;5073993;28;20498;-48
2024/02/16 04:10:36;;;;;;;7.32;2.78;;;;;;;15.48;52.73;98666.50;5073887;28;20024;-48
2024/02/16 04:13:04;;;;;;;10.30;5.03;;;;;;;15.44;53.21;98668.81;5073894;28;20097;-48
2024/02/16 04:15:30;;;;;;;8.05;2.80;;;;;;;15.27;52.84;98663.44;5073818;28;20063;-48
2024/02/16 04:17:55;;;;;;;11.63;5.10;;;;;;;15.29;54.07;98677.22;5072504;28;20503;-48
2024/02/16 04:20:22;;;;;;;5.65;2.25;;;;;;;15.38;53.55;98678.47;5072157;28;20040;-48
2024/02/16 04:22:48;;;;;;;6.70;2.92;;;;;;;15.38;53.44;98682.94;5073645;28;20013;-48
2024/02/16 04:25:14;;;;;;;5.47;2.33;;;;;;;15.24;53.74;98679.75;5073582;28;20146;-48
2024/02/16 04:27:40;;;;;;;8.05;3.65;;;;;;;15.10;54.55;98673.88;5072260;28;20101;-48
2024/02/16 04:30:06;;;;;;;7.75;2.78;;;;;;;15.06;54.50;98677.22;5073490;28;20016;-48
2024/02/16 04:32:32;;;;;;;11.52;3.85;;;;;;;15.11;54.59;98678.16;5073753;28;20509;-48
2024/02/16 04:34:58;;;;;;;7.82;4.00;;;;;;;15.10;54.38;98681.00;5073454;28;20073;-48
2024/02/16 04:37:25;;;;;;;10.25;3.85;;;;;;;15.13;55.32;98678.72;5055768;28;20111;-48
2024/02/16 04:39:52;;;;;;;9.32;4.60;;;;;;;15.29;55.72;98681.69;5072074;28;20114;-48
2024/02/16 04:42:17;;;;;;;7.78;3.00;;;;;;;15.47;54.96;98680.75;5073257;28;20417;-49
2024/02/16 04:44:43;;;;;;;8.02;3.67;;;;;;;15.54;55.22;98687.53;5073245;28;20036;-49
2024/02/16 04:47:09;;;;;;;10.27;3.80;;;;;;;15.63;55.27;98679.22;5071873;28;20020;-48
2024/02/16 04:49:36;;;;;;;9.52;4.68;;;;;;;15.81;55.56;98691.53;5072151;28;20056;-49
2024/02/16 04:52:03;;;;;;;11.93;4.15;;;;;;;15.90;54.42;98690.94;5072992;28;20035;-49
2024/02/16 04:54:29;;;;;;;8.88;4.70;;;;;;;15.77;54.26;98693.84;5073310;28;20446;-48
2024/02/16 04:56:55;;;;;;;4.88;2.53;;;;;;;15.46;53.22;98701.09;5071675;28;20059;-48
2024/02/16 04:59:21;;;;;;;5.85;2.90;;;;;;;15.10;53.97;98704.81;5071916;28;20055;-48
2024/02/16 05:01:47;;;;;;;8.95;2.85;;;;;;;14.83;55.03;98702.59;5072757;28;20111;-48
2024/02/16 05:04:16;;;;;;;11.93;3.17;;;;;;;14.62;55.53;98705.75;5071756;28;20029;-48
2024/02/16 05:06:43;;;;;;;11.07;3.83;;;;;;;14.47;56.47;98708.78;5070457;28;20030;-48
2024/02/16 05:09:09;;;;;;;9.30;4.65;;;;;;;14.46;56.53;98702.69;5072681;28;20049;-48
2024/02/16 05:11:35;;;;;;;8.85;4.05;;;;;;;14.46;57.17;98702.69;5054763;28;20059;-48
2024/02/16 05:14:01;;;;;;;6.70;2.90;;;;;;;14.47;56.78;98711.44;5071692;28;20024;-48
2024/02/16 05:16:27;;;;;;;9.32;3.63;;;;;;;14.27;57.61;98717.78;5072609;28;20074;-48
2024/02/16 05:18:53;;;;;;;8.65;3.33;;;;;;;14.25;57.60;98716.41;5071173;28;20127;-48
2024/02/16 05:21:22;;;;;;;7.97;2.78;;;;;;;14.21;57.38;98720.50;5072425;28;20139;-48
2024/02/16 05:23:48;;;;;;;13.88;3.65;;;;;;;14.13;58.36;98719.78;5072508;28;20030;-48
2024/02/16 05:26:13;;;;;;;10.57;3.78;;;;;;;14.19;58.73;98721.53;5071089;28;20402;-48
2024/02/16 05:28:39;;;;;;;10.18;5.32;;;;;;;14.24;59.44;98720.06;5071366;28;20028;-48
2024/02/16 05:31:19;;;;;;;7.32;3.28;;;;;;;14.35;58.39;98721.94;5072344;28;20067;-48
2024/02/16 05:33:49;;;;;;;8.57;3.05;;;;;;;14.23;57.61;98729.81;5072297;28;20050;-48
2024/02/16 05:36:25;;;;;;;6.80;3.03;;;;;;;14.12;58.08;98734.00;5072210;28;20028;-48
2024/02/16 05:38:51;;;;;;;8.93;4.07;;;;;;;14.13;58.39;98730.34;5072222;28;20021;-48
2024/02/16 05:41:17;;;;;;;11.32;6.25;;;;;;;14.16;59.24;98742.28;5071961;28;20028;-48
2024/02/16 05:43:44;;;;;;;11.07;3.95;;;;;;;14.03;58.92;98735.34;5072122;28;20463;-48
2024/02/16 05:46:14;;;;;;;10.23;4.15;;;;;;;14.05;59.11;98735.13;5070711;28;20055;-48
2024/02/16 05:48:40;;;;;;;7.47;3.60;;;;;;;14.08;58.49;98739.94;5072129;28;20167;-48
2024/02/16 05:51:06;;;;;;;8.13;3.45;;;;;;;14.05;58.63;98743.03;5071995;28;20059;-48
2024/02/16 05:53:33;;;;;;;11.38;4.47;;;;;;;14.11;60.02;98740.31;5054099;28;20021;-48
2024/02/16 05:56:02;;;;;;;10.68;3.95;;;;;;;14.09;58.90;98747.66;5071942;28;20027;-48
2024/02/16 05:58:29;;;;;;;13.70;6.22;;;;;;;14.11;59.48;98747.44;5071986;28;20024;-48
2024/02/16 06:00:55;;;;;;;12.45;4.70;;;;;;;14.09;59.24;98752.13;5071822;28;20046;-48
2024/02/16 06:03:21;;;;;;;18.67;8.48;;;;;;;14.13;61.52;98748.81;5070799;28;20021;-48
2024/02/16 06:05:47;;;;;;;14.93;6.38;;;;;;;14.11;60.30;98748.22;5070575;28;20016;-48
2024/02/16 06:08:15;;;;;;;11.00;4.50;;;;;;;14.14;60.28;98753.06;5070545;28;20548;-48
2024/02/16 06:10:41;;;;;;;8.73;4.15;;;;;;;14.35;61.13;98754.44;5071739;28;20021;-48
2024/02/16 06:13:07;;;;;;;9.20;3.00;;;;;;;14.41;58.79;98758.00;5054464;28;20428;-48
2024/02/16 06:15:37;;;;;;;9.20;2.67;;;;;;;14.24;58.37;98765.72;5071727;28;20074;-48
2024/02/16 06:18:03;;;;;;;8.23;3.08;;;;;;;14.13;58.39;98762.00;5070635;28;20382;-48
2024/02/16 06:20:29;;;;;;;10.30;4.63;;;;;;;14.01;59.14;98765.63;5071214;28;20053;-48
2024/02/16 06:22:55;;;;;;;7.70;3.28;;;;;;;13.91;59.43;98766.94;5071909;28;20071;-48
2024/02/16 06:25:21;;;;;;;9.57;3.65;;;;;;;13.91;59.52;98774.03;5071663;28;20052;-48
2024/02/16 06:27:46;;;;;;;12.45;4.03;;;;;;;13.81;59.33;98771.91;5071627;28;20107;-48
2024/02/16 06:30:14;;;;;;;8.98;4.40;;;;;;;13.75;60.00;98770.94;5071792;28;20106;-48
2024/02/16 06:32:43;;;;;;;7.53;3.72;;;;;;;13.77;59.99;98778.66;5071677;28;20033;-48
2024/02/16 06:35:09;;;;;;;10.13;3.80;;;;;;;13.70;60.00;98777.91;5071563;28;20509;-48
2024/02/16 06:37:34;;;;;;;11.07;5.22;;;;;;;13.60;60.63;98783.66;5071855;28;20029;-46
2024/02/16 06:40:00;;;;;;;5.85;3.20;;;;;;;13.57;60.95;98787.53;5071471;28;20025;-46
2024/02/16 06:42:26;;;;;;;8.68;4.15;;;;;;;13.62;61.07;98780.81;5070419;28;20024;-46
2024/02/16 06:44:52;;;;;;;12.23;3.75;;;;;;;13.75;60.51;98786.78;5071551;28;20527;-47
2024/02/16 06:47:18;;;;;;;10.98;5.40;;;;;;;13.74;60.26;98787.81;5071514;28;20033;-46
2024/02/16 06:49:46;;;;;;;12.27;7.55;;;;;;;13.73;60.66;98793.28;5071473;28;20048;-46
2024/02/16 06:52:12;;;;;;;11.85;4.38;;;;;;;13.75;60.28;98796.53;5071359;28;20033;-46
2024/02/16 06:54:38;;;;;;;14.52;8.45;;;;;;;13.73;60.64;98804.66;5071720;28;20111;-46
2024/02/16 06:57:04;;;;;;;9.68;5.72;;;;;;;13.76;60.97;98801.59;5071311;28;20056;-46
2024/02/16 06:59:29;;;;;;;16.55;6.50;;;;;;;13.77;60.77;98805.81;5070093;28;20115;-46
2024/02/16 07:01:55;;;;;;;14.13;7.22;;;;;;;13.81;61.20;98811.47;5069980;28;20036;-46
2024/02/16 07:04:22;;;;;;;12.07;6.28;;;;;;;13.86;60.40;98808.19;5070010;28;20183;-46
2024/02/16 07:06:47;;;;;;;11.88;5.63;;;;;;;13.84;60.70;98815.50;5069976;28;20033;-48
2024/02/16 07:09:15;;;;;;;12.32;4.65;;;;;;;13.79;60.58;98814.31;5071202;28;20066;-48
2024/02/16 07:11:41;;;;;;;9.02;5.50;;;;;;;13.72;61.08;98818.88;5071266;28;20106;-48
2024/02/16 07:14:08;;;;;;;14.85;6.28;;;;;;;13.73;60.99;98823.09;5071133;28;20030;-48
2024/02/16 07:16:34;;;;;;;11.60;6.85;;;;;;;13.84;60.84;98829.50;5071446;28;20407;-48
2024/02/16 07:19:00;;;;;;;17.40;6.80;;;;;;;13.99;60.31;98832.59;5069707;28;20086;-46
2024/02/16 07:21:26;;;;;;;13.38;5.05;;;;;;;14.04;60.11;98834.56;5071060;28;20025;-46
2024/02/16 07:23:53;;;;;;;14.32;6.05;;;;;;;14.13;59.77;98841.19;5071090;28;20013;-47
2024/02/16 07:26:18;;;;;;;11.70;5.70;;;;;;;14.11;59.50;98835.31;5071062;28;20024;-46
2024/02/16 07:28:44;;;;;;;23.80;12.13;;;;;;;14.20;60.82;98835.81;5069804;28;20107;-46
2024/02/16 07:31:11;;;;;;;13.55;5.70;;;;;;;14.37;60.30;98836.06;5073576;28;20036;-46
2024/02/16 07:33:37;;;;;;;14.73;6.63;;;;;;;14.51;60.43;98836.72;5074578;28;20482;-46
2024/02/16 07:36:04;;;;;;;10.95;4.90;;;;;;;14.53;59.13;98840.75;5074534;28;20020;-46
2024/02/16 07:38:30;;;;;;;13.27;6.55;;;;;;;14.51;59.16;98847.28;5074539;28;20103;-47
2024/02/16 07:40:55;;;;;;;13.52;8.10;;;;;;;14.50;58.65;98838.53;5074414;28;20100;-48
2024/02/16 07:43:23;;;;;;;12.00;3.75;;;;;;;14.45;59.35;98850.81;5074450;28;20482;-48
2024/02/16 07:45:50;;;;;;;11.15;4.93;;;;;;;14.46;58.61;98849.75;5074421;28;20440;-48
2024/02/16 07:48:16;;;;;;;18.80;7.35;;;;;;;14.44;59.26;98862.38;5074408;28;20056;-48
2024/02/16 07:50:42;;;;;;;458.65;406.98;;;;;;;14.46;61.28;98850.56;5072999;28;20586;-48
2024/02/16 07:53:09;;;;;;;116.78;81.55;;;;;;;14.66;60.75;98854.84;5074526;28;20086;-47
2024/02/16 07:55:36;;;;;;;29.90;20.65;;;;;;;14.86;60.11;98854.59;5074182;28;20020;-47
2024/02/16 07:58:02;;;;;;;29.23;12.88;;;;;;;14.94;58.72;98851.63;5074208;28;20530;-47
2024/02/16 08:00:28;;;;;;;41.08;22.52;;;;;;;15.06;59.09;98854.31;5073977;28;20024;-46
2024/02/16 08:02:54;;;;;;;39.63;23.23;;;;;;;15.14;59.08;98859.28;5074164;28;20031;-46
2024/02/16 08:05:22;;;;;;;28.02;15.55;;;;;;;15.26;63.08;98854.81;5072728;28;20115;-46
2024/02/16 08:07:48;;;;;;;20.80;10.88;;;;;;;15.34;60.64;98851.84;5072655;28;20372;-46
2024/02/16 08:10:13;;;;;;;15.80;10.95;;;;;;;15.29;61.16;98853.56;5074161;28;20077;-47
2024/02/16 08:12:40;;;;;;;22.98;12.93;;;;;;;15.39;65.51;98859.09;5073917;28;20017;-48
2024/02/16 08:15:10;;;;;;;24.40;10.95;;;;;;;15.53;65.55;98868.44;5073788;28;20502;-48
2024/02/16 08:17:36;;;;;;;23.05;12.52;;;;;;;15.65;62.10;98868.44;5073822;28;20021;-48
2024/02/16 08:20:03;;;;;;;38.90;21.38;;;;;;;15.60;60.48;98863.03;5073553;28;20056;-48
2024/02/16 08:22:29;;;;;;;27.75;18.75;;;;;;;15.75;59.42;98868.75;5073762;28;20029;-48
2024/02/16 08:24:55;;;;;;;60.10;41.88;;;;;;;15.80;58.86;98860.09;5073540;28;20032;-48
2024/02/16 08:27:21;;;;;;;32.33;18.73;;;;;;;15.96;58.50;98864.69;5073526;28;20029;-48
2024/02/16 08:29:47;;;;;;;29.27;17.55;;;;;;;15.95;56.58;98868.38;5073561;28;20024;-48
2024/02/16 08:32:13;;;;;;;18.02;8.73;;;;;;;15.72;56.33;98873.66;5073591;28;20073;-48
2024/02/16 08:34:39;;;;;;;19.88;13.57;;;;;;;15.71;56.95;98872.81;5073492;28;20027;-48
2024/02/16 08:37:05;;;;;;;36.88;11.02;;;;;;;15.81;56.86;98868.84;5073429;28;20024;-46
2024/02/16 08:39:34;;;;;;;18.48;6.93;;;;;;;15.86;56.23;98871.63;5072132;28;20064;-46
2024/02/16 08:42:00;;;;;;;23.70;11.52;;;;;;;16.10;57.04;98877.72;5072115;28;20111;-46
2024/02/16 08:44:26;;;;;;;12.95;5.80;;;;;;;16.26;54.70;98869.06;5073270;28;20158;-46
2024/02/16 08:46:53;;;;;;;13.93;6.38;;;;;;;16.20;54.96;98874.44;5073273;28;20031;-48
2024/02/16 08:49:19;;;;;;;15.35;3.63;;;;;;;16.21;54.04;98873.44;5073143;28;20028;-48
2024/02/16 08:51:45;;;;;;;15.27;6.10;;;;;;;16.16;54.79;98877.59;5073163;28;20031;-48
2024/02/16 08:54:11;;;;;;;19.35;5.85;;;;;;;16.31;54.50;98876.28;5073136;28;20016;-48
2024/02/16 08:56:39;;;;;;;13.75;5.53;;;;;;;16.51;54.46;98878.56;5073088;28;20604;-48
2024/02/16 08:59:05;;;;;;;7.72;2.50;;;;;;;16.82;53.05;98882.66;5071700;28;20052;-48
2024/02/16 09:01:32;;;;;;;11.60;4.47;;;;;;;17.02;52.73;98881.41;5072892;28;20036;-49
2024/02/16 09:03:58;;;;;;;14.57;6.20;;;;;;;17.12;52.95;98886.91;5071630;28;20020;-47
2024/02/16 09:06:24;;;;;;;7.28;3.53;;;;;;;17.35;51.94;98888.63;5071808;28;20097;-47
2024/02/16 09:08:50;;;;;;;9.40;3.80;;;;;;;17.45;51.73;98891.47;5072735;28;20032;-47
2024/02/16 09:11:17;;;;;;;6.53;1.98;;;;;;;17.65;51.85;98893.66;5072722;28;20025;-46
2024/02/16 09:13:43;;;;;;;8.73;3.03;;;;;;;17.86;52.41;98894.78;5071695;28;20094;-47
2024/02/16 09:16:09;;;;;;;9.07;3.08;;;;;;;17.89;51.57;98896.97;5072600;28;20078;-47
2024/02/16 09:18:37;;;;;;;9.68;2.50;;;;;;;17.96;50.06;98905.56;5072195;28;20028;-47
2024/02/16 09:21:04;;;;;;;5.43;2.15;;;;;;;18.13;50.14;98902.09;5072497;28;20066;-48
2024/02/16 09:23:30;;;;;;;19.20;8.55;;;;;;;18.52;49.13;98902.88;5072597;28;20112;-48
2024/02/16 09:25:56;;;;;;;15.32;2.65;;;;;;;18.71;47.84;98894.56;5071246;28;20021;-48
2024/02/16 09:28:22;;;;;;;8.82;3.75;;;;;;;18.84;47.14;98904.09;5071076;28;20056;-48
2024/02/16 09:30:48;;;;;;;7.68;3.28;;;;;;;18.72;47.43;98906.84;5072421;28;20032;-49
2024/02/16 09:33:13;;;;;;;6.75;3.15;;;;;;;18.88;48.01;98902.53;5071068;28;20098;-48
2024/02/16 09:35:40;;;;;;;7.75;3.10;;;;;;;19.03;47.04;98907.19;5072326;28;20467;-47
2024/02/16 09:38:06;;;;;;;7.03;2.10;;;;;;;19.42;46.25;98913.19;5070903;28;20102;-47
2024/02/16 09:40:33;;;;;;;8.00;2.05;;;;;;;19.69;45.74;98910.47;5072159;28;20498;-47
2024/02/16 09:42:59;;;;;;;6.45;2.40;;;;;;;20.06;44.29;98907.06;5071133;28;20531;-47
2024/02/16 09:45:27;;;;;;;6.55;2.40;;;;;;;20.03;44.52;98914.75;5072142;28;20100;-45
2024/02/16 09:47:55;;;;;;;7.10;2.40;;;;;;;20.12;45.04;98913.19;5072364;28;20107;-45
2024/02/16 09:50:21;;;;;;;7.82;2.38;;;;;;;20.25;44.39;98914.63;5072010;28;20016;-45
2024/02/16 09:52:49;;;;;;;5.53;1.92;;;;;;;20.46;43.27;98912.84;5070185;28;20029;-46
2024/02/16 09:55:16;;;;;;;7.28;2.08;;;;;;;20.57;42.94;98913.72;5070669;28;20024;-46
2024/02/16 09:57:43;;;;;;;7.57;2.00;;;;;;;20.52;42.74;98915.31;5070700;28;20016;-46
2024/02/16 10:00:10;;;;;;;4.00;1.88;;;;;;;20.75;42.60;98926.63;5071819;28;20099;-46
2024/02/16 10:02:46;;;;;;;10.02;2.10;;;;;;;20.92;42.00;98916.53;5071978;28;20020;-46
2024/02/16 10:05:20;;;;;;;2.65;1.48;;;;;;;21.05;42.13;98928.59;5070518;28;20391;-46
2024/02/16 10:07:47;;;;;;;5.47;2.80;;;;;;;21.11;41.81;98926.72;5072033;28;20032;-46
2024/02/16 10:10:28;;;;;;;7.78;2.53;;;;;;;21.23;41.54;98929.97;5070654;28;20028;-46
2024/02/16 10:13:07;;;;;;;9.15;2.30;;;;;;;21.28;41.20;98932.63;5071829;28;20027;-45
2024/02/16 10:15:35;;;;;;;5.15;2.50;;;;;;;21.41;40.46;98931.31;5071765;28;20039;-45
2024/02/16 10:18:02;;;;;;;8.32;2.08;;;;;;;21.50;40.69;98936.97;5071804;28;20024;-44
2024/02/16 10:20:29;;;;;;;6.35;3.03;;;;;;;21.85;40.94;98938.03;5070153;28;20418;-45
2024/02/16 10:23:08;;;;;;;8.27;3.90;;;;;;;22.38;39.99;98935.84;5071604;28;20048;-44
2024/02/16 10:25:43;;;;;;;4.30;1.85;;;;;;;22.47;38.67;98938.75;5071718;28;20024;-45
2024/02/16 10:28:11;;;;;;;10.32;3.38;;;;;;;22.44;39.08;98932.09;5071725;28;20108;-45
2024/02/16 10:30:38;;;;;;;6.97;3.67;;;;;;;22.61;38.85;98944.34;5071904;28;20032;-45
2024/02/16 10:33:07;;;;;;;5.90;2.10;;;;;;;22.71;38.18;98946.97;5070596;28;20490;-45
2024/02/16 10:35:37;;;;;;;8.75;3.63;;;;;;;22.77;37.97;98942.41;5070297;28;20039;-45
2024/02/16 10:38:06;;;;;;;10.60;2.65;;;;;;;22.95;37.89;98931.06;5071620;28;20052;-44
2024/02/16 10:40:38;;;;;;;11.30;2.22;;;;;;;23.15;38.45;98937.44;5071483;28;20028;-45
2024/02/16 10:43:08;;;;;;;5.43;1.92;;;;;;;23.24;39.86;98936.59;5071522;28;20020;-45
2024/02/16 10:45:38;;;;;;;9.15;5.43;;;;;;;23.11;39.37;98934.50;5070142;28;20025;-45
2024/02/16 10:48:07;;;;;;;4.30;2.47;;;;;;;23.10;38.41;98941.75;5071422;28;20025;-45
2024/02/16 10:50:35;;;;;;;5.15;2.42;;;;;;;23.17;37.48;98941.44;5070138;28;20046;-45
2024/02/16 10:53:25;;;;;;;6.22;2.38;;;;;;;23.02;38.01;98930.78;5071435;28;20104;-45
2024/02/16 10:55:52;;;;;;;4.88;1.77;;;;;;;23.15;37.63;98938.22;5066191;28;20115;-45
2024/02/16 10:58:19;;;;;;;10.43;2.15;;;;;;;23.17;37.23;98941.44;5071383;28;20024;-45
2024/02/16 11:00:49;;;;;;;7.03;2.10;;;;;;;23.29;36.94;98941.88;5071316;28;20078;-45
2024/02/16 11:03:18;;;;;;;5.20;1.92;;;;;;;23.39;36.66;98935.66;5071342;28;20048;-45
2024/02/16 11:05:46;;;;;;;4.60;1.58;;;;;;;23.59;36.37;98940.09;5073305;28;20104;-45
2024/02/16 11:08:16;;;;;;;3.97;1.58;;;;;;;23.88;35.61;98931.28;5073851;28;20032;-45
2024/02/16 11:11:05;;;;;;;8.15;2.05;;;;;;;24.20;35.06;98938.75;5057323;28;20024;-45
2024/02/16 11:13:36;;;;;;;6.63;1.92;;;;;;;24.95;34.69;98939.28;5073774;28;20498;-45
2024/02/16 11:16:09;;;;;;;3.13;1.38;;;;;;;25.09;33.55;98932.91;5074952;28;20482;-47
2024/02/16 11:18:43;;;;;;;7.05;1.83;;;;;;;25.15;33.27;98938.19;5073723;28;20029;-47
2024/02/16 11:21:12;;;;;;;8.07;2.10;;;;;;;25.06;33.32;98932.69;5074884;28;20107;-47
2024/02/16 11:23:40;;;;;;;4.57;1.50;;;;;;;25.06;33.21;98932.69;5073561;28;20502;-47
2024/02/16 11:26:13;;;;;;;7.25;2.25;;;;;;;25.02;33.01;98931.66;5073441;28;20036;-45
2024/02/16 11:28:42;;;;;;;4.95;1.30;;;;;;;25.44;32.83;98925.44;5074658;28;20021;-46